sensor_id;sensor_type;location;lat;lon;timestamp;pressure;altitude;pressure_sealevel;temperature;humidity
23574;BME280;11965;53.640;10.050;2024-03-22T00:02:18;101750.44;;;8.00;100.00
23574;BME280;11965;53.640;10.050;2024-03-22T00:04:44;101742.75;;;8.04;100.00
23574;BME280;11965;53.640;10.050;2024-03-22T00:07:12;101745.72;;;8.10;100.00
23574;BME280;11965;53.640;10.050;2024-03-22T00:09:38;101733.56;;;8.03;100.00
23574;BME280;11965;53.640;10.050;2024-03-22T00:12:08;101732.25;;;8.25;100.00
23574;BME280;11965;53.640;10.050;2024-03-22T00:14:34;101729.50;;;8.25;100.00
23574;BME280;11965;53.640;10.050;2024-03-22T00:17:01;101723.56;;;8.20;100.00
23574;BME280;11965;53.640;10.050;2024-03-22T00:19:27;101727.22;;;8.38;100.00
23574;BME280;11965;53.640;10.050;2024-03-22T00:21:54;101720.56;;;8.31;100.00
23574;BME280;11965;53.640;10.050;2024-03-22T00:24:20;101722.78;;;8.28;100.00
23574;BME280;11965;53.640;10.050;2024-03-22T00:26:47;101720.81;;;8.20;100.00
23574;BME280;11965;53.640;10.050;2024-03-22T00:29:16;101710.56;;;8.12;100.00
23574;BME280;11965;53.640;10.050;2024-03-22T00:31:44;101698.88;;;8.36;100.00
23574;BME280;11965;53.640;10.050;2024-03-22T00:34:10;101694.28;;;8.27;100.00
23574;BME280;11965;53.640;10.050;2024-03-22T00:36:37;101696.69;;;8.22;100.00
23574;BME280;11965;53.640;10.050;2024-03-22T00:39:03;101688.41;;;8.22;100.00
23574;BME280;11965;53.640;10.050;2024-03-22T00:41:31;101689.41;;;8.21;100.00
23574;BME280;11965;53.640;10.050;2024-03-22T00:43:57;101677.97;;;8.16;100.00
23574;BME280;11965;53.640;10.050;2024-03-22T00:46:26;101680.47;;;8.27;100.00
23574;BME280;11965;53.640;10.050;2024-03-22T00:48:53;101659.09;;;8.29;100.00
23574;BME280;11965;53.640;10.050;2024-03-22T00:51:19;101673.91;;;8.46;100.00
23574;BME280;11965;53.640;10.050;2024-03-22T00:53:46;101661.16;;;8.45;100.00
23574;BME280;11965;53.640;10.050;2024-03-22T00:56:12;101663.13;;;8.53;100.00
23574;BME280;11965;53.640;10.050;2024-03-22T00:58:39;101659.16;;;8.37;100.00
23574;BME280;11965;53.640;10.050;2024-03-22T01:01:05;101660.34;;;8.35;100.00
23574;BME280;11965;53.640;10.050;2024-03-22T01:03:34;101651.91;;;8.36;100.00
23574;BME280;11965;53.640;10.050;2024-03-22T01:06:01;101647.81;;;8.40;100.00
23574;BME280;11965;53.640;10.050;2024-03-22T01:08:28;101632.31;;;8.30;100.00
23574;BME280;11965;53.640;10.050;2024-03-22T01:10:54;101638.19;;;8.45;100.00
23574;BME280;11965;53.640;10.050;2024-03-22T01:13:22;101637.47;;;8.43;100.00
23574;BME280;11965;53.640;10.050;2024-03-22T01:15:48;101622.84;;;8.50;100.00
23574;BME280;11965;53.640;10.050;2024-03-22T01:18:15;101629.91;;;8.45;100.00
23574;BME280;11965;53.640;10.050;2024-03-22T01:20:43;101606.59;;;8.29;100.00
23574;BME280;11965;53.640;10.050;2024-03-22T01:23:10;101608.56;;;8.37;100.00
23574;BME280;11965;53.640;10.050;2024-03-22T01:25:37;101599.03;;;8.49;100.00
23574;BME280;11965;53.640;10.050;2024-03-22T01:28:04;101593.03;;;8.36;100.00
23574;BME280;11965;53.640;10.050;2024-03-22T01:30:31;101587.75;;;8.43;100.00
23574;BME280;11965;53.640;10.050;2024-03-22T01:32:59;101582.00;;;8.36;100.00
23574;BME280;11965;53.640;10.050;2024-03-22T01:35:26;101572.28;;;8.32;100.00
23574;BME280;11965;53.640;10.050;2024-03-22T01:37:54;101563.28;;;8.30;100.00
23574;BME280;11965;53.640;10.050;2024-03-22T01:40:20;101556.41;;;8.34;100.00
23574;BME280;11965;53.640;10.050;2024-03-22T01:42:47;101560.75;;;8.36;100.00
23574;BME280;11965;53.640;10.050;2024-03-22T01:45:14;101557.56;;;8.23;100.00
23574;BME280;11965;53.640;10.050;2024-03-22T01:47:41;101544.88;;;8.38;100.00
23574;BME280;11965;53.640;10.050;2024-03-22T01:50:09;101551.41;;;8.37;100.00
23574;BME280;11965;53.640;10.050;2024-03-22T01:52:39;101541.50;;;8.27;100.00
23574;BME280;11965;53.640;10.050;2024-03-22T01:55:08;101548.13;;;8.34;100.00
23574;BME280;11965;53.640;10.050;2024-03-22T01:57:36;101542.94;;;8.57;100.00
23574;BME280;11965;53.640;10.050;2024-03-22T02:00:05;101542.94;;;8.57;100.00
23574;BME280;11965;53.640;10.050;2024-03-22T02:02:39;101546.69;;;8.48;100.00
23574;BME280;11965;53.640;10.050;2024-03-22T02:05:11;101546.16;;;8.44;100.00
23574;BME280;11965;53.640;10.050;2024-03-22T02:07:39;101522.91;;;8.55;100.00
23574;BME280;11965;53.640;10.050;2024-03-22T02:10:08;101521.81;;;8.48;100.00
23574;BME280;11965;53.640;10.050;2024-03-22T02:12:37;101529.06;;;8.49;100.00
23574;BME280;11965;53.640;10.050;2024-03-22T02:15:06;101522.38;;;8.59;100.00
23574;BME280;11965;53.640;10.050;2024-03-22T02:17:34;101510.50;;;8.67;100.00
23574;BME280;11965;53.640;10.050;2024-03-22T02:20:01;101509.31;;;8.70;100.00
23574;BME280;11965;53.640;10.050;2024-03-22T02:22:29;101508.91;;;8.56;100.00
23574;BME280;11965;53.640;10.050;2024-03-22T02:24:56;101503.34;;;8.48;100.00
23574;BME280;11965;53.640;10.050;2024-03-22T02:27:25;101503.91;;;8.52;100.00
23574;BME280;11965;53.640;10.050;2024-03-22T02:29:51;101497.53;;;8.59;100.00
23574;BME280;11965;53.640;10.050;2024-03-22T02:32:18;101508.44;;;8.69;100.00
23574;BME280;11965;53.640;10.050;2024-03-22T02:34:44;101513.38;;;8.92;100.00
23574;BME280;11965;53.640;10.050;2024-03-22T02:37:12;101513.19;;;8.85;100.00
23574;BME280;11965;53.640;10.050;2024-03-22T02:39:38;101509.72;;;8.83;100.00
23574;BME280;11965;53.640;10.050;2024-03-22T02:42:07;101506.09;;;8.82;100.00
23574;BME280;11965;53.640;10.050;2024-03-22T02:44:33;101505.38;;;8.80;100.00
23574;BME280;11965;53.640;10.050;2024-03-22T02:47:04;101509.94;;;8.90;100.00
23574;BME280;11965;53.640;10.050;2024-03-22T02:49:30;101506.06;;;8.74;100.00
23574;BME280;11965;53.640;10.050;2024-03-22T02:51:57;101499.63;;;8.66;100.00
23574;BME280;11965;53.640;10.050;2024-03-22T02:54:23;101497.63;;;8.76;100.00
23574;BME280;11965;53.640;10.050;2024-03-22T02:56:50;101488.97;;;8.71;100.00
23574;BME280;11965;53.640;10.050;2024-03-22T02:59:18;101494.44;;;8.62;100.00
23574;BME280;11965;53.640;10.050;2024-03-22T03:01:45;101484.84;;;8.91;100.00
23574;BME280;11965;53.640;10.050;2024-03-22T03:04:11;101482.25;;;8.81;100.00
23574;BME280;11965;53.640;10.050;2024-03-22T03:06:38;101483.66;;;8.94;100.00
23574;BME280;11965;53.640;10.050;2024-03-22T03:09:04;101479.28;;;8.75;100.00
23574;BME280;11965;53.640;10.050;2024-03-22T03:11:33;101470.25;;;8.65;100.00
23574;BME280;11965;53.640;10.050;2024-03-22T03:13:59;101462.84;;;8.65;100.00
23574;BME280;11965;53.640;10.050;2024-03-22T03:16:28;101461.50;;;8.77;100.00
23574;BME280;11965;53.640;10.050;2024-03-22T03:18:54;101451.81;;;8.73;100.00
23574;BME280;11965;53.640;10.050;2024-03-22T03:21:21;101442.34;;;8.84;100.00
23574;BME280;11965;53.640;10.050;2024-03-22T03:23:47;101439.38;;;8.77;100.00
23574;BME280;11965;53.640;10.050;2024-03-22T03:26:16;101449.38;;;8.70;100.00
23574;BME280;11965;53.640;10.050;2024-03-22T03:28:42;101435.78;;;8.85;100.00
23574;BME280;11965;53.640;10.050;2024-03-22T03:31:09;101440.59;;;8.83;100.00
23574;BME280;11965;53.640;10.050;2024-03-22T03:33:36;101432.88;;;8.95;100.00
23574;BME280;11965;53.640;10.050;2024-03-22T03:36:04;101431.44;;;8.82;100.00
23574;BME280;11965;53.640;10.050;2024-03-22T03:38:31;101437.34;;;8.88;100.00
23574;BME280;11965;53.640;10.050;2024-03-22T03:40:58;101429.75;;;8.98;100.00
23574;BME280;11965;53.640;10.050;2024-03-22T03:43:24;101420.78;;;8.96;100.00
23574;BME280;11965;53.640;10.050;2024-03-22T03:45:51;101413.19;;;9.06;100.00
23574;BME280;11965;53.640;10.050;2024-03-22T03:48:19;101405.53;;;8.83;100.00
23574;BME280;11965;53.640;10.050;2024-03-22T03:50:53;101406.22;;;8.77;100.00
23574;BME280;11965;53.640;10.050;2024-03-22T03:53:20;101405.22;;;8.95;100.00
23574;BME280;11965;53.640;10.050;2024-03-22T03:55:47;101411.09;;;9.00;100.00
23574;BME280;11965;53.640;10.050;2024-03-22T03:58:13;101362.31;;;8.66;100.00
23574;BME280;11965;53.640;10.050;2024-03-22T04:00:43;101389.66;;;8.85;100.00
23574;BME280;11965;53.640;10.050;2024-03-22T04:03:10;101384.81;;;8.79;100.00
23574;BME280;11965;53.640;10.050;2024-03-22T04:05:38;101386.19;;;8.83;100.00
23574;BME280;11965;53.640;10.050;2024-03-22T04:08:06;101384.47;;;8.91;100.00
23574;BME280;11965;53.640;10.050;2024-03-22T04:10:33;101373.25;;;8.84;100.00
23574;BME280;11965;53.640;10.050;2024-03-22T04:12:58;101363.72;;;8.78;100.00
23574;BME280;11965;53.640;10.050;2024-03-22T04:15:26;101350.25;;;8.92;100.00
23574;BME280;11965;53.640;10.050;2024-03-22T04:17:52;101342.13;;;8.82;100.00
23574;BME280;11965;53.640;10.050;2024-03-22T04:20:19;101341.28;;;8.98;100.00
23574;BME280;11965;53.640;10.050;2024-03-22T04:22:45;101348.03;;;9.12;100.00
23574;BME280;11965;53.640;10.050;2024-03-22T04:25:17;101347.53;;;9.16;100.00
23574;BME280;11965;53.640;10.050;2024-03-22T04:27:42;101350.44;;;9.06;100.00
23574;BME280;11965;53.640;10.050;2024-03-22T04:30:11;101335.22;;;9.02;100.00
23574;BME280;11965;53.640;10.050;2024-03-22T04:32:37;101345.63;;;9.09;100.00
23574;BME280;11965;53.640;10.050;2024-03-22T04:35:04;101344.41;;;9.11;100.00
23574;BME280;11965;53.640;10.050;2024-03-22T04:37:31;101339.72;;;9.20;100.00
23574;BME280;11965;53.640;10.050;2024-03-22T04:39:58;101336.13;;;9.03;100.00
23574;BME280;11965;53.640;10.050;2024-03-22T04:42:27;101322.28;;;9.03;100.00
23574;BME280;11965;53.640;10.050;2024-03-22T04:44:54;101309.84;;;8.91;100.00
23574;BME280;11965;53.640;10.050;2024-03-22T04:47:21;101320.53;;;9.10;100.00
23574;BME280;11965;53.640;10.050;2024-03-22T04:49:47;101316.22;;;9.07;100.00
23574;BME280;11965;53.640;10.050;2024-03-22T04:52:14;101316.56;;;9.21;100.00
23574;BME280;11965;53.640;10.050;2024-03-22T04:54:40;101314.16;;;9.10;100.00
23574;BME280;11965;53.640;10.050;2024-03-22T04:57:08;101317.63;;;9.03;100.00
23574;BME280;11965;53.640;10.050;2024-03-22T04:59:35;101298.41;;;9.02;100.00
23574;BME280;11965;53.640;10.050;2024-03-22T05:02:02;101295.50;;;9.03;100.00
23574;BME280;11965;53.640;10.050;2024-03-22T05:04:29;101298.59;;;9.00;100.00
23574;BME280;11965;53.640;10.050;2024-03-22T05:06:56;101295.84;;;9.17;100.00
23574;BME280;11965;53.640;10.050;2024-03-22T05:09:22;101298.97;;;9.05;100.00
23574;BME280;11965;53.640;10.050;2024-03-22T05:11:49;101300.66;;;9.06;100.00
23574;BME280;11965;53.640;10.050;2024-03-22T05:14:16;101300.13;;;9.27;100.00
23574;BME280;11965;53.640;10.050;2024-03-22T05:16:45;101300.25;;;9.42;100.00
23574;BME280;11965;53.640;10.050;2024-03-22T05:19:11;101290.25;;;9.41;100.00
23574;BME280;11965;53.640;10.050;2024-03-22T05:21:38;101284.56;;;9.26;100.00
23574;BME280;11965;53.640;10.050;2024-03-22T05:24:04;101283.00;;;9.32;100.00
23574;BME280;11965;53.640;10.050;2024-03-22T05:26:32;101283.16;;;9.39;100.00
23574;BME280;11965;53.640;10.050;2024-03-22T05:29:02;101272.50;;;9.19;100.00
23574;BME280;11965;53.640;10.050;2024-03-22T05:31:30;101269.19;;;9.24;100.00
23574;BME280;11965;53.640;10.050;2024-03-22T05:33:58;101277.13;;;9.35;100.00
23574;BME280;11965;53.640;10.050;2024-03-22T05:36:25;101277.97;;;9.44;100.00
23574;BME280;11965;53.640;10.050;2024-03-22T05:38:51;101274.50;;;9.42;100.00
23574;BME280;11965;53.640;10.050;2024-03-22T05:41:18;101284.22;;;9.38;100.00
23574;BME280;11965;53.640;10.050;2024-03-22T05:43:44;101277.47;;;9.32;100.00
23574;BME280;11965;53.640;10.050;2024-03-22T05:46:13;101271.03;;;9.40;100.00
23574;BME280;11965;53.640;10.050;2024-03-22T05:48:39;101277.13;;;9.35;100.00
23574;BME280;11965;53.640;10.050;2024-03-22T05:51:08;101284.88;;;9.40;100.00
23574;BME280;11965;53.640;10.050;2024-03-22T05:53:34;101283.16;;;9.47;100.00
23574;BME280;11965;53.640;10.050;2024-03-22T05:56:02;101279.84;;;9.51;100.00
23574;BME280;11965;53.640;10.050;2024-03-22T05:58:28;101279.84;;;9.51;100.00
23574;BME280;11965;53.640;10.050;2024-03-22T06:00:56;101257.91;;;9.42;100.00
23574;BME280;11965;53.640;10.050;2024-03-22T06:03:22;101265.16;;;9.51;100.00
23574;BME280;11965;53.640;10.050;2024-03-22T06:05:49;101280.50;;;9.54;100.00
23574;BME280;11965;53.640;10.050;2024-03-22T06:08:17;101272.72;;;9.65;100.00
23574;BME280;11965;53.640;10.050;2024-03-22T06:10:45;101259.28;;;9.54;100.00
23574;BME280;11965;53.640;10.050;2024-03-22T06:13:12;101241.97;;;9.52;100.00
23574;BME280;11965;53.640;10.050;2024-03-22T06:15:42;101238.47;;;9.58;100.00
23574;BME280;11965;53.640;10.050;2024-03-22T06:18:11;101238.28;;;9.68;100.00
23574;BME280;11965;53.640;10.050;2024-03-22T06:20:38;101232.06;;;9.66;100.00
23574;BME280;11965;53.640;10.050;2024-03-22T06:23:04;101249.41;;;9.91;100.00
23574;BME280;11965;53.640;10.050;2024-03-22T06:25:33;101251.69;;;9.87;100.00
23574;BME280;11965;53.640;10.050;2024-03-22T06:27:59;101251.53;;;9.89;100.00
23574;BME280;11965;53.640;10.050;2024-03-22T06:30:26;101239.50;;;10.05;100.00
23574;BME280;11965;53.640;10.050;2024-03-22T06:32:53;101244.47;;;10.09;100.00
23574;BME280;11965;53.640;10.050;2024-03-22T06:35:20;101233.38;;;10.09;100.00
23574;BME280;11965;53.640;10.050;2024-03-22T06:37:46;101237.00;;;10.10;100.00
23574;BME280;11965;53.640;10.050;2024-03-22T06:40:15;101224.22;;;10.09;100.00
23574;BME280;11965;53.640;10.050;2024-03-22T06:42:43;101214.19;;;10.08;100.00
23574;BME280;11965;53.640;10.050;2024-03-22T06:45:10;101211.91;;;10.11;100.00
23574;BME280;11965;53.640;10.050;2024-03-22T06:47:36;101206.53;;;10.10;100.00
23574;BME280;11965;53.640;10.050;2024-03-22T06:50:04;101188.38;;;10.15;100.00
23574;BME280;11965;53.640;10.050;2024-03-22T06:52:30;101185.59;;;10.15;100.00
23574;BME280;11965;53.640;10.050;2024-03-22T06:54:57;101177.56;;;10.21;100.00
23574;BME280;11965;53.640;10.050;2024-03-22T06:57:23;101174.44;;;10.24;100.00
23574;BME280;11965;53.640;10.050;2024-03-22T06:59:52;101185.50;;;10.32;100.00
23574;BME280;11965;53.640;10.050;2024-03-22T07:02:18;101189.69;;;10.28;100.00
23574;BME280;11965;53.640;10.050;2024-03-22T07:04:45;101182.22;;;10.28;100.00
23574;BME280;11965;53.640;10.050;2024-03-22T07:07:11;101186.38;;;10.24;100.00
23574;BME280;11965;53.640;10.050;2024-03-22T07:09:39;101185.69;;;10.30;100.00
23574;BME280;11965;53.640;10.050;2024-03-22T07:12:05;101184.81;;;10.30;100.00
23574;BME280;11965;53.640;10.050;2024-03-22T07:14:32;101179.22;;;10.38;100.00
23574;BME280;11965;53.640;10.050;2024-03-22T07:17:00;101170.53;;;10.41;100.00
23574;BME280;11965;53.640;10.050;2024-03-22T07:19:27;101176.38;;;10.46;100.00
23574;BME280;11965;53.640;10.050;2024-03-22T07:21:54;101177.44;;;10.45;100.00
23574;BME280;11965;53.640;10.050;2024-03-22T07:24:21;101171.44;;;10.56;100.00
23574;BME280;11965;53.640;10.050;2024-03-22T07:26:49;101174.25;;;10.71;100.00
23574;BME280;11965;53.640;10.050;2024-03-22T07:29:16;101187.38;;;10.77;100.00
23574;BME280;11965;53.640;10.050;2024-03-22T07:31:42;101183.16;;;10.81;100.00
23574;BME280;11965;53.640;10.050;2024-03-22T07:34:10;101177.91;;;10.87;100.00
23574;BME280;11965;53.640;10.050;2024-03-22T07:36:37;101181.25;;;10.82;100.00
23574;BME280;11965;53.640;10.050;2024-03-22T07:39:05;101167.84;;;10.71;100.00
23574;BME280;11965;53.640;10.050;2024-03-22T07:41:31;101170.31;;;10.66;100.00
23574;BME280;11965;53.640;10.050;2024-03-22T07:43:58;101164.09;;;10.64;100.00
23574;BME280;11965;53.640;10.050;2024-03-22T07:46:25;101167.06;;;10.62;100.00
23574;BME280;11965;53.640;10.050;2024-03-22T07:48:53;101167.34;;;10.67;100.00
23574;BME280;11965;53.640;10.050;2024-03-22T07:51:20;101166.34;;;10.83;100.00
23574;BME280;11965;53.640;10.050;2024-03-22T07:53:47;101168.66;;;10.94;100.00
23574;BME280;11965;53.640;10.050;2024-03-22T07:56:13;101160.13;;;10.81;100.00
23574;BME280;11965;53.640;10.050;2024-03-22T07:58:41;101165.38;;;10.76;100.00
23574;BME280;11965;53.640;10.050;2024-03-22T08:01:09;101173.50;;;10.77;100.00
23574;BME280;11965;53.640;10.050;2024-03-22T08:03:36;101163.97;;;10.95;100.00
23574;BME280;11965;53.640;10.050;2024-03-22T08:06:02;101155.63;;;10.95;100.00
23574;BME280;11965;53.640;10.050;2024-03-22T08:08:30;101162.91;;;10.96;100.00
23574;BME280;11965;53.640;10.050;2024-03-22T08:10:56;101156.88;;;10.92;100.00
23574;BME280;11965;53.640;10.050;2024-03-22T08:13:23;101154.66;;;10.88;100.00
23574;BME280;11965;53.640;10.050;2024-03-22T08:15:49;101146.94;;;10.83;100.00
23574;BME280;11965;53.640;10.050;2024-03-22T08:18:16;101155.03;;;10.84;100.00
23574;BME280;11965;53.640;10.050;2024-03-22T08:20:42;101141.69;;;10.88;100.00
23574;BME280;11965;53.640;10.050;2024-03-22T08:23:09;101137.25;;;10.79;100.00
23574;BME280;11965;53.640;10.050;2024-03-22T08:25:36;101146.34;;;10.88;100.00
23574;BME280;11965;53.640;10.050;2024-03-22T08:28:04;101141.47;;;10.90;100.00
23574;BME280;11965;53.640;10.050;2024-03-22T08:30:30;101131.06;;;10.92;100.00
23574;BME280;11965;53.640;10.050;2024-03-22T08:32:57;101134.09;;;10.82;100.00
23574;BME280;11965;53.640;10.050;2024-03-22T08:35:23;101138.03;;;10.73;100.00
23574;BME280;11965;53.640;10.050;2024-03-22T08:37:49;101143.34;;;10.59;100.00
23574;BME280;11965;53.640;10.050;2024-03-22T08:40:15;101130.50;;;10.58;100.00
23574;BME280;11965;53.640;10.050;2024-03-22T08:42:44;101125.34;;;10.55;100.00
23574;BME280;11965;53.640;10.050;2024-03-22T08:45:10;101124.97;;;10.58;100.00
23574;BME280;11965;53.640;10.050;2024-03-22T08:47:37;101131.78;;;10.56;100.00
23574;BME280;11965;53.640;10.050;2024-03-22T08:50:04;101120.63;;;10.64;100.00
23574;BME280;11965;53.640;10.050;2024-03-22T08:52:30;101118.09;;;10.54;100.00
23574;BME280;11965;53.640;10.050;2024-03-22T08:54:57;101119.50;;;10.50;100.00
23574;BME280;11965;53.640;10.050;2024-03-22T08:57:24;101125.47;;;10.62;100.00
23574;BME280;11965;53.640;10.050;2024-03-22T08:59:52;101118.78;;;10.56;100.00
23574;BME280;11965;53.640;10.050;2024-03-22T09:02:19;101127.66;;;10.52;100.00
23574;BME280;11965;53.640;10.050;2024-03-22T09:04:45;101125.50;;;10.39;100.00
23574;BME280;11965;53.640;10.050;2024-03-22T09:07:12;101124.41;;;10.48;100.00
23574;BME280;11965;53.640;10.050;2024-03-22T09:09:38;101114.03;;;10.42;100.00
23574;BME280;11965;53.640;10.050;2024-03-22T09:12:06;101120.91;;;10.31;100.00
23574;BME280;11965;53.640;10.050;2024-03-22T09:14:32;101113.41;;;10.40;100.00
23574;BME280;11965;53.640;10.050;2024-03-22T09:17:00;101113.00;;;10.43;100.00
23574;BME280;11965;53.640;10.050;2024-03-22T09:19:26;101105.47;;;10.37;100.00
23574;BME280;11965;53.640;10.050;2024-03-22T09:21:53;101113.69;;;10.45;100.00
23574;BME280;11965;53.640;10.050;2024-03-22T09:24:19;101098.84;;;10.38;100.00
23574;BME280;11965;53.640;10.050;2024-03-22T09:26:46;101086.25;;;10.35;100.00
23574;BME280;11965;53.640;10.050;2024-03-22T09:29:13;101092.34;;;10.31;100.00
23574;BME280;11965;53.640;10.050;2024-03-22T09:31:40;101085.59;;;10.48;100.00
23574;BME280;11965;53.640;10.050;2024-03-22T09:34:08;101082.91;;;10.40;100.00
23574;BME280;11965;53.640;10.050;2024-03-22T09:36:35;101083.00;;;10.32;100.00
23574;BME280;11965;53.640;10.050;2024-03-22T09:39:01;101080.63;;;10.44;100.00
23574;BME280;11965;53.640;10.050;2024-03-22T09:41:32;101072.59;;;10.49;100.00
23574;BME280;11965;53.640;10.050;2024-03-22T09:43:59;101070.41;;;10.59;100.00
23574;BME280;11965;53.640;10.050;2024-03-22T09:46:27;101077.09;;;10.50;100.00
23574;BME280;11965;53.640;10.050;2024-03-22T09:48:54;101075.53;;;10.47;100.00
23574;BME280;11965;53.640;10.050;2024-03-22T09:51:24;101063.94;;;10.29;100.00
23574;BME280;11965;53.640;10.050;2024-03-22T09:53:52;101067.22;;;10.32;100.00
23574;BME280;11965;53.640;10.050;2024-03-22T09:56:21;101071.38;;;10.51;100.00
23574;BME280;11965;53.640;10.050;2024-03-22T09:58:47;101067.53;;;10.37;100.00
23574;BME280;11965;53.640;10.050;2024-03-22T10:01:15;101061.00;;;10.30;100.00
23574;BME280;11965;53.640;10.050;2024-03-22T10:03:43;101055.47;;;10.30;100.00
23574;BME280;11965;53.640;10.050;2024-03-22T10:06:11;101052.63;;;10.15;100.00
23574;BME280;11965;53.640;10.050;2024-03-22T10:08:39;101056.06;;;10.17;100.00
23574;BME280;11965;53.640;10.050;2024-03-22T10:11:06;101044.97;;;10.17;100.00
23574;BME280;11965;53.640;10.050;2024-03-22T10:13:32;101052.06;;;10.20;100.00
23574;BME280;11965;53.640;10.050;2024-03-22T10:15:59;101051.16;;;10.28;100.00
23574;BME280;11965;53.640;10.050;2024-03-22T10:18:26;101051.53;;;10.39;100.00
23574;BME280;11965;53.640;10.050;2024-03-22T10:21:00;101050.03;;;10.37;100.00
23574;BME280;11965;53.640;10.050;2024-03-22T10:23:26;101054.69;;;10.36;100.00
23574;BME280;11965;53.640;10.050;2024-03-22T10:25:56;101052.59;;;10.38;100.00
23574;BME280;11965;53.640;10.050;2024-03-22T10:28:22;101064.06;;;10.35;100.00
23574;BME280;11965;53.640;10.050;2024-03-22T10:30:51;101057.97;;;10.40;100.00
23574;BME280;11965;53.640;10.050;2024-03-22T10:33:19;101060.06;;;10.38;100.00
23574;BME280;11965;53.640;10.050;2024-03-22T10:35:51;101054.41;;;10.31;100.00
23574;BME280;11965;53.640;10.050;2024-03-22T10:38:18;101050.78;;;10.31;100.00
23574;BME280;11965;53.640;10.050;2024-03-22T10:40:46;101048.50;;;10.34;100.00
23574;BME280;11965;53.640;10.050;2024-03-22T10:43:14;101055.84;;;10.42;100.00
23574;BME280;11965;53.640;10.050;2024-03-22T10:45:42;101053.97;;;10.43;100.00
23574;BME280;11965;53.640;10.050;2024-03-22T10:48:09;101042.50;;;10.46;100.00
23574;BME280;11965;53.640;10.050;2024-03-22T10:50:39;101048.59;;;10.41;100.00
23574;BME280;11965;53.640;10.050;2024-03-22T10:53:09;101049.28;;;10.43;100.00
23574;BME280;11965;53.640;10.050;2024-03-22T10:55:43;101050.69;;;10.39;100.00
23574;BME280;11965;53.640;10.050;2024-03-22T10:58:16;101046.97;;;10.47;100.00
23574;BME280;11965;53.640;10.050;2024-03-22T11:00:44;101043.63;;;10.36;100.00
23574;BME280;11965;53.640;10.050;2024-03-22T11:03:10;101046.31;;;10.45;100.00
23574;BME280;11965;53.640;10.050;2024-03-22T11:05:45;101049.97;;;10.45;100.00
23574;BME280;11965;53.640;10.050;2024-03-22T11:08:11;101044.69;;;10.50;100.00
23574;BME280;11965;53.640;10.050;2024-03-22T11:10:39;101047.66;;;10.49;100.00
23574;BME280;11965;53.640;10.050;2024-03-22T11:13:06;101035.72;;;10.48;100.00
23574;BME280;11965;53.640;10.050;2024-03-22T11:15:35;101030.72;;;10.58;100.00
23574;BME280;11965;53.640;10.050;2024-03-22T11:18:01;101020.22;;;10.69;100.00
23574;BME280;11965;53.640;10.050;2024-03-22T11:20:28;101025.13;;;10.67;100.00
23574;BME280;11965;53.640;10.050;2024-03-22T11:22:56;101025.00;;;10.60;100.00
23574;BME280;11965;53.640;10.050;2024-03-22T11:25:23;101028.84;;;10.59;100.00
23574;BME280;11965;53.640;10.050;2024-03-22T11:27:49;101031.78;;;10.57;100.00
23574;BME280;11965;53.640;10.050;2024-03-22T11:30:16;101032.09;;;10.48;100.00
23574;BME280;11965;53.640;10.050;2024-03-22T11:32:44;101027.13;;;10.43;100.00
23574;BME280;11965;53.640;10.050;2024-03-22T11:35:13;101002.84;;;10.45;100.00
23574;BME280;11965;53.640;10.050;2024-03-22T11:37:39;101016.13;;;10.50;100.00
23574;BME280;11965;53.640;10.050;2024-03-22T11:40:09;101017.06;;;10.42;100.00
23574;BME280;11965;53.640;10.050;2024-03-22T11:42:36;101024.13;;;10.45;100.00
23574;BME280;11965;53.640;10.050;2024-03-22T11:45:06;101024.25;;;10.51;100.00
23574;BME280;11965;53.640;10.050;2024-03-22T11:47:34;101021.75;;;10.42;100.00
23574;BME280;11965;53.640;10.050;2024-03-22T11:50:03;101009.97;;;10.39;100.00
23574;BME280;11965;53.640;10.050;2024-03-22T11:52:29;101008.41;;;10.45;100.00
23574;BME280;11965;53.640;10.050;2024-03-22T11:54:56;101004.09;;;10.43;100.00
23574;BME280;11965;53.640;10.050;2024-03-22T11:57:23;101005.03;;;10.50;100.00
23574;BME280;11965;53.640;10.050;2024-03-22T11:59:52;101008.41;;;10.45;100.00
23574;BME280;11965;53.640;10.050;2024-03-22T12:02:24;101004.56;;;10.46;100.00
23574;BME280;11965;53.640;10.050;2024-03-22T12:04:51;101001.97;;;10.45;100.00
23574;BME280;11965;53.640;10.050;2024-03-22T12:07:18;101005.72;;;10.52;100.00
23574;BME280;11965;53.640;10.050;2024-03-22T12:09:45;100998.44;;;10.51;100.00
23574;BME280;11965;53.640;10.050;2024-03-22T12:12:13;100994.78;;;10.50;100.00
23574;BME280;11965;53.640;10.050;2024-03-22T12:14:40;100985.44;;;10.51;100.00
23574;BME280;11965;53.640;10.050;2024-03-22T12:17:06;100983.34;;;10.53;100.00
23574;BME280;11965;53.640;10.050;2024-03-22T12:19:34;100990.44;;;10.56;100.00
23574;BME280;11965;53.640;10.050;2024-03-22T12:22:00;100981.81;;;10.66;100.00
23574;BME280;11965;53.640;10.050;2024-03-22T12:24:29;100982.28;;;10.54;100.00
23574;BME280;11965;53.640;10.050;2024-03-22T12:26:55;100985.03;;;10.69;100.00
23574;BME280;11965;53.640;10.050;2024-03-22T12:29:22;100984.69;;;10.72;100.00
23574;BME280;11965;53.640;10.050;2024-03-22T12:31:48;100981.69;;;10.74;100.00
23574;BME280;11965;53.640;10.050;2024-03-22T12:34:15;100987.81;;;10.69;100.00
23574;BME280;11965;53.640;10.050;2024-03-22T12:36:42;100989.25;;;10.80;100.00